Twin Groves, Idaho
Current Conditions -  °F | °C
As of 8:15 AM on Wednesday 22 Oct 2014 (Local Time) from KWYS Reporting Station
Overcast Overcast  
Wind Chill: 23°   Ceiling: 1000
Heat Index: 32°   Visibility: 10mi
Dew Point: 32°   Wind: 13mph
Humidity: 100%   Direction: 210°SSW
Pressure: 30.16"   Gusts: NA
Location:  44.2887°N, 111.507°W
Report Text: KWYS 221415Z AUTO 21011KT 10SM OVC010 00/00 A3016 RMK AO2
Loading
Personal Weather Stations






























Interactive Weather Map
Tropical Storm Tracking
New forecast layout! Learn more

10-Day Weather Forecast

Advertisements
Track Severe Weather on mobile